Lockhart, Indiana
Current Conditions -  °F | °C
As of 3:15 PM on Sunday 23 Nov 2014 (Local Time) from KHNB Reporting Station
Overcast Overcast  
Wind Chill: 55°   Ceiling: 1700
Heat Index: 55°   Visibility: 10mi
Dew Point: 52°   Wind: 10mph
Humidity: 88%   Direction: 150°SSE
Pressure: 29.47"   Gusts: NA
Location:  38.277°N, 87.1283°W
Report Text: KHNB 232115Z AUTO 15009KT 10SM SCT009 OVC017 13/11 A2947 RMK AO1 P0002
Loading
Personal Weather Stations






























Interactive Weather Map New forecast layout! Learn more

10-Day Weather Forecast

Advertisements
Track Severe Weather on mobile